createdAt,value
2023-01-31T00:01:38.467Z,94531.22
2023-01-31T00:04:09.716Z,94523.91
2023-01-31T00:06:44.986Z,94532.16
2023-01-31T00:09:14.378Z,94531.34
2023-01-31T00:11:41.260Z,94543.84
2023-01-31T00:14:10.721Z,94542.25
2023-01-31T00:16:37.729Z,94537.59
2023-01-31T00:19:04.784Z,94524.03
2023-01-31T00:21:32.735Z,94537.00
2023-01-31T00:24:00.475Z,94533.22
2023-01-31T00:26:33.061Z,94518.47
2023-01-31T00:29:03.707Z,94514.97
2023-01-31T00:31:33.410Z,94523.09
2023-01-31T00:34:01.164Z,94536.72
2023-01-31T00:36:32.219Z,94538.09
2023-01-31T00:39:01.159Z,94527.53
2023-01-31T00:41:30.869Z,94531.84
2023-01-31T00:43:57.910Z,94525.16
2023-01-31T00:46:25.624Z,94545.53
2023-01-31T00:48:53.393Z,94544.50
2023-01-31T00:51:20.708Z,94539.28
2023-01-31T00:53:48.163Z,94525.91
2023-01-31T00:56:18.570Z,94521.19
2023-01-31T00:58:45.881Z,94529.16
2023-01-31T01:01:14.923Z,94529.84
2023-01-31T01:03:44.078Z,94516.91
2023-01-31T01:06:11.990Z,94539.97
2023-01-31T01:08:41.085Z,94547.69
2023-01-31T01:11:18.358Z,94558.41
2023-01-31T01:13:46.515Z,94548.53
2023-01-31T01:16:17.191Z,94553.22
2023-01-31T01:18:48.272Z,94552.75
2023-01-31T01:21:18.186Z,94533.56
2023-01-31T01:23:47.231Z,94524.66
2023-01-31T01:26:19.444Z,94537.22
2023-01-31T01:28:47.461Z,94523.66
2023-01-31T01:31:18.901Z,94523.72
2023-01-31T01:33:48.531Z,94428.75
2023-01-31T01:36:22.216Z,94482.19
2023-01-31T01:38:49.508Z,94484.09
2023-01-31T01:41:17.037Z,94492.22
2023-01-31T01:43:44.051Z,94520.00
2023-01-31T01:46:16.476Z,94499.94
2023-01-31T01:48:48.293Z,94491.22
2023-01-31T01:51:19.412Z,94511.94
2023-01-31T01:53:51.441Z,94501.81
2023-01-31T01:56:26.003Z,94518.25
2023-01-31T01:59:02.080Z,94511.59
2023-01-31T02:01:35.019Z,94498.25
2023-01-31T02:04:09.356Z,94507.97
2023-01-31T02:06:36.290Z,94484.09
2023-01-31T02:09:07.987Z,94515.06
2023-01-31T02:11:35.921Z,94510.41
2023-01-31T02:14:07.412Z,94531.66
2023-01-31T02:16:35.467Z,94510.00
2023-01-31T02:19:25.382Z,94530.84
2023-01-31T02:21:52.255Z,94535.28
2023-01-31T02:25:03.463Z,94534.47
2023-01-31T02:27:51.397Z,94528.22
2023-01-31T02:30:27.632Z,94524.94
2023-01-31T02:33:07.231Z,94524.94
2023-01-31T02:35:50.121Z,94532.66
2023-01-31T02:38:17.110Z,94535.50
2023-01-31T02:40:50.305Z,94529.22
2023-01-31T02:44:09.467Z,94524.97
2023-01-31T02:46:53.227Z,94545.84
2023-01-31T02:49:37.014Z,94530.81
2023-01-31T02:52:31.487Z,94546.81
2023-01-31T02:55:27.904Z,94559.16
2023-01-31T02:57:58.997Z,94549.66
2023-01-31T03:00:27.299Z,94569.47
2023-01-31T03:02:54.281Z,94572.91
2023-01-31T03:05:21.833Z,94568.63
2023-01-31T03:07:59.902Z,94576.72
2023-01-31T03:10:55.984Z,94585.78
2023-01-31T03:13:35.212Z,94580.94
2023-01-31T03:16:31.337Z,94587.41
2023-01-31T03:19:21.123Z,94593.03
2023-01-31T03:22:12.033Z,94588.34
2023-01-31T03:24:40.493Z,94603.56
2023-01-31T03:27:07.535Z,94590.38
2023-01-31T03:29:38.674Z,94594.63
2023-01-31T03:32:24.725Z,94584.72
2023-01-31T03:34:53.282Z,94611.00
2023-01-31T03:37:44.988Z,94602.31
2023-01-31T03:40:32.188Z,94591.13
2023-01-31T03:43:07.427Z,94624.91
2023-01-31T03:45:41.672Z,94634.59
2023-01-31T03:48:14.690Z,94631.78
2023-01-31T03:50:51.393Z,94624.03
2023-01-31T03:53:22.770Z,94650.13
2023-01-31T03:55:53.493Z,94649.91
2023-01-31T03:58:24.790Z,94606.50
2023-01-31T04:00:53.100Z,94612.75
2023-01-31T04:03:28.059Z,94633.25
2023-01-31T04:05:55.128Z,94631.63
2023-01-31T04:08:22.556Z,94636.97
2023-01-31T04:10:59.692Z,94636.69
2023-01-31T04:13:26.694Z,94654.50
2023-01-31T04:15:53.552Z,94657.09
2023-01-31T04:18:20.562Z,94641.13
2023-01-31T04:20:47.486Z,94654.94
2023-01-31T04:23:14.739Z,94642.19
2023-01-31T04:25:41.582Z,94650.38
2023-01-31T04:28:08.488Z,94641.19
2023-01-31T04:30:35.495Z,94649.06
2023-01-31T04:33:02.543Z,94658.34
2023-01-31T04:35:29.954Z,94666.22
2023-01-31T04:37:56.829Z,94661.16
2023-01-31T04:40:23.717Z,94674.66
2023-01-31T04:42:50.968Z,94671.25
2023-01-31T04:45:18.503Z,94683.78
2023-01-31T04:47:45.663Z,94674.59
2023-01-31T04:50:12.666Z,94671.22
2023-01-31T04:52:39.794Z,94690.84
2023-01-31T04:55:07.144Z,94688.63
2023-01-31T04:57:34.118Z,94665.69
2023-01-31T05:00:01.295Z,94658.00
2023-01-31T05:02:30.418Z,94657.81
2023-01-31T05:04:57.345Z,94684.53
2023-01-31T05:07:24.271Z,94664.06
2023-01-31T05:09:51.141Z,94670.94
2023-01-31T05:12:18.205Z,94674.84
2023-01-31T05:14:45.120Z,94665.53
2023-01-31T05:17:12.178Z,94675.13
2023-01-31T05:19:39.217Z,94660.16
2023-01-31T05:22:06.433Z,94661.34
2023-01-31T05:24:33.634Z,94676.13
2023-01-31T05:27:01.865Z,94686.06
2023-01-31T05:29:31.411Z,94680.75
2023-01-31T05:31:59.903Z,94683.69
2023-01-31T05:34:30.848Z,94684.38
2023-01-31T05:36:58.283Z,94696.59
2023-01-31T05:39:26.100Z,94694.56
2023-01-31T05:41:53.226Z,94569.03
2023-01-31T05:44:20.604Z,94680.19
2023-01-31T05:46:48.802Z,94703.78
2023-01-31T05:49:16.132Z,94701.84
2023-01-31T05:51:43.179Z,94695.59
2023-01-31T05:54:11.830Z,94705.59
2023-01-31T05:56:39.327Z,94699.00
2023-01-31T05:59:06.782Z,94716.59
2023-01-31T06:01:33.721Z,94706.97
2023-01-31T06:04:00.861Z,94719.41
2023-01-31T06:06:27.805Z,94695.84
2023-01-31T06:08:54.820Z,94702.09
2023-01-31T06:11:21.672Z,94688.97
2023-01-31T06:13:49.546Z,94719.22
2023-01-31T06:16:16.953Z,94712.13
2023-01-31T06:19:02.678Z,94725.38
2023-01-31T06:21:29.825Z,94706.59
2023-01-31T06:23:57.264Z,94721.38
2023-01-31T06:26:24.504Z,94712.94
2023-01-31T06:28:51.468Z,94719.41
2023-01-31T06:31:19.505Z,94716.31
2023-01-31T06:33:48.031Z,94726.94
2023-01-31T06:36:18.877Z,94725.28
2023-01-31T06:38:51.081Z,94698.00
2023-01-31T06:41:19.499Z,94728.06
2023-01-31T06:43:46.505Z,94736.56
2023-01-31T06:46:15.562Z,94738.59
2023-01-31T06:48:42.617Z,94739.81
2023-01-31T06:51:10.191Z,94719.28
2023-01-31T06:53:37.209Z,94730.44
2023-01-31T06:56:04.322Z,94734.16
2023-01-31T06:58:50.007Z,94733.34
2023-01-31T07:01:17.195Z,94735.88
2023-01-31T07:03:44.500Z,94752.25
2023-01-31T07:06:12.027Z,94745.19
2023-01-31T07:08:38.959Z,94717.38
2023-01-31T07:11:06.306Z,94736.47
2023-01-31T07:13:33.481Z,94738.09
2023-01-31T07:16:00.893Z,94747.72
2023-01-31T07:18:28.166Z,94750.63
2023-01-31T07:20:55.118Z,94753.44
2023-01-31T07:23:22.004Z,94745.56
2023-01-31T07:25:49.120Z,94754.41
2023-01-31T07:28:16.251Z,94749.75
2023-01-31T07:30:43.952Z,94741.59
2023-01-31T07:33:11.789Z,94741.69
2023-01-31T07:35:38.968Z,94757.84
2023-01-31T07:38:05.816Z,94756.03
2023-01-31T07:40:33.199Z,94746.31
2023-01-31T07:43:00.699Z,94736.34
2023-01-31T07:45:27.846Z,94750.56
2023-01-31T07:47:58.627Z,94759.25
2023-01-31T07:50:27.319Z,94760.91
2023-01-31T07:52:54.291Z,94754.44
2023-01-31T07:55:21.779Z,94737.84
2023-01-31T07:57:48.798Z,94727.91
2023-01-31T08:00:34.973Z,94740.19
2023-01-31T08:03:20.634Z,94718.75
2023-01-31T08:05:47.965Z,94759.94
2023-01-31T08:08:14.833Z,94744.31
2023-01-31T08:10:41.740Z,94752.19
2023-01-31T08:13:11.125Z,94740.63
2023-01-31T08:15:37.881Z,94758.09
2023-01-31T08:18:06.386Z,94752.50
2023-01-31T08:20:34.166Z,94733.78
2023-01-31T08:23:01.266Z,94736.03
2023-01-31T08:25:31.920Z,94732.50
2023-01-31T08:28:00.488Z,94746.22
2023-01-31T08:30:28.472Z,94717.94
2023-01-31T08:32:56.461Z,94696.25
2023-01-31T08:35:23.331Z,94723.63
2023-01-31T08:37:50.147Z,94717.56
2023-01-31T08:40:17.460Z,94732.78
2023-01-31T08:42:44.557Z,94733.22
2023-01-31T08:45:11.883Z,94734.03
2023-01-31T08:47:40.202Z,94742.75
2023-01-31T08:50:15.836Z,94737.28
2023-01-31T08:52:57.055Z,94717.81
2023-01-31T08:55:25.114Z,94740.09
2023-01-31T08:57:59.844Z,94731.97
2023-01-31T09:00:27.557Z,94718.81
2023-01-31T09:02:56.394Z,94729.16
2023-01-31T09:05:25.184Z,94732.63
2023-01-31T09:07:54.070Z,94721.25
2023-01-31T09:10:22.172Z,94726.91
2023-01-31T09:12:49.220Z,94725.28
2023-01-31T09:15:17.157Z,94737.66
2023-01-31T09:17:44.392Z,94735.03
2023-01-31T09:20:11.688Z,94718.63
2023-01-31T09:22:38.730Z,94723.28
2023-01-31T09:25:06.444Z,94718.03
2023-01-31T09:27:33.405Z,94726.53
2023-01-31T09:30:00.399Z,94739.09
2023-01-31T09:32:27.384Z,94741.34
2023-01-31T09:34:54.429Z,94715.19
2023-01-31T09:37:21.298Z,94700.00
2023-01-31T09:39:48.310Z,94725.31
2023-01-31T09:42:33.823Z,94711.09
2023-01-31T09:45:21.789Z,94713.72
2023-01-31T09:47:52.439Z,94697.72
2023-01-31T09:50:34.875Z,94688.63
2023-01-31T09:53:02.853Z,94667.16
2023-01-31T09:55:38.310Z,94699.75
2023-01-31T09:58:18.708Z,94704.19
2023-01-31T10:00:58.931Z,94686.13
2023-01-31T10:03:46.034Z,94695.63
2023-01-31T10:06:24.936Z,94693.94
2023-01-31T10:09:19.851Z,94688.66
2023-01-31T10:11:59.230Z,94696.78
2023-01-31T10:14:40.072Z,94688.84
2023-01-31T10:17:18.850Z,94661.31
2023-01-31T10:19:51.527Z,94701.78
2023-01-31T10:22:26.137Z,94686.56
2023-01-31T10:24:59.605Z,94679.06
2023-01-31T10:27:40.982Z,94694.16
2023-01-31T10:30:16.968Z,94677.84
2023-01-31T10:32:48.729Z,94673.72
2023-01-31T10:35:28.085Z,94683.78
2023-01-31T10:38:05.983Z,94625.03
2023-01-31T10:40:37.255Z,94654.91
2023-01-31T10:43:30.139Z,94674.50
2023-01-31T10:46:01.081Z,94676.94
2023-01-31T10:48:29.862Z,94670.22
2023-01-31T10:51:08.688Z,94673.03
2023-01-31T10:53:59.120Z,94689.91
2023-01-31T10:56:37.854Z,94679.53
2023-01-31T10:59:12.069Z,94686.63
2023-01-31T11:01:39.088Z,94688.25
2023-01-31T11:04:26.575Z,94694.78
2023-01-31T11:06:54.685Z,94674.78
2023-01-31T11:09:24.532Z,94670.91
2023-01-31T11:12:00.460Z,94682.25
2023-01-31T11:14:27.620Z,94658.97
2023-01-31T11:17:17.379Z,94638.06
2023-01-31T11:19:51.601Z,94689.09
2023-01-31T11:22:32.326Z,94683.91
2023-01-31T11:25:04.286Z,94678.38
2023-01-31T11:27:43.515Z,94687.75
2023-01-31T11:30:32.654Z,94692.03
2023-01-31T11:32:59.625Z,94654.56
2023-01-31T11:35:33.180Z,94656.59
2023-01-31T11:38:22.388Z,94695.09
2023-01-31T11:40:49.798Z,94684.16
2023-01-31T11:43:19.732Z,94693.28
2023-01-31T11:45:55.194Z,94683.94
2023-01-31T11:48:40.529Z,94705.47
2023-01-31T11:51:08.580Z,94689.44
2023-01-31T11:53:50.823Z,94692.50
2023-01-31T11:56:23.016Z,94681.13
2023-01-31T11:58:55.141Z,94693.09
2023-01-31T12:01:24.682Z,94692.28
2023-01-31T12:04:04.219Z,94695.91
2023-01-31T12:06:42.007Z,94692.88
2023-01-31T12:09:22.555Z,94709.91
2023-01-31T12:11:52.297Z,94685.16
2023-01-31T12:14:20.737Z,94689.63
2023-01-31T12:16:49.947Z,94685.16
2023-01-31T12:19:29.192Z,94682.31
2023-01-31T12:22:16.758Z,94682.75
2023-01-31T12:25:16.641Z,94677.50
2023-01-31T12:27:56.417Z,94681.31
2023-01-31T12:30:23.277Z,94688.44
2023-01-31T12:33:16.653Z,94646.09
2023-01-31T12:35:55.510Z,94678.31
2023-01-31T12:38:22.356Z,94687.00
2023-01-31T12:40:49.278Z,94687.03
2023-01-31T12:43:25.247Z,94684.97
2023-01-31T12:46:07.317Z,94685.78
2023-01-31T12:49:00.534Z,94671.81
2023-01-31T12:51:51.633Z,94698.56
2023-01-31T12:54:47.804Z,94701.81
2023-01-31T12:57:30.525Z,94705.03
2023-01-31T13:00:10.202Z,94710.28
2023-01-31T13:03:07.586Z,94703.81
2023-01-31T13:05:54.586Z,94679.50
2023-01-31T13:08:33.251Z,94697.13
2023-01-31T13:11:12.896Z,94696.09
2023-01-31T13:13:46.756Z,94700.19
2023-01-31T13:16:18.932Z,94701.59
2023-01-31T13:18:49.328Z,94682.13
2023-01-31T13:21:21.441Z,94688.22
2023-01-31T13:23:59.771Z,94696.94
2023-01-31T13:26:32.522Z,94706.63
2023-01-31T13:29:33.870Z,94699.75
2023-01-31T13:32:20.547Z,94712.72
2023-01-31T13:34:53.713Z,94713.97
2023-01-31T13:37:24.020Z,94713.97
2023-01-31T13:39:58.173Z,94712.16
2023-01-31T13:42:25.489Z,94675.88
2023-01-31T13:44:53.154Z,94715.19
2023-01-31T13:47:34.161Z,94701.59
2023-01-31T13:50:47.023Z,94712.13
2023-01-31T13:53:20.698Z,94718.19
2023-01-31T13:55:50.500Z,94693.50
2023-01-31T13:58:25.897Z,94716.78
2023-01-31T14:01:01.809Z,94715.59
2023-01-31T14:03:28.747Z,94718.41
2023-01-31T14:06:02.171Z,94720.25
2023-01-31T14:08:32.055Z,94722.47
2023-01-31T14:11:01.733Z,94713.16
2023-01-31T14:13:31.566Z,94733.81
2023-01-31T14:15:59.124Z,94707.69
2023-01-31T14:18:36.131Z,94720.84
2023-01-31T14:21:29.268Z,94721.47
2023-01-31T14:24:06.357Z,94733.19
2023-01-31T14:26:42.664Z,94740.28
2023-01-31T14:29:15.475Z,94728.16
2023-01-31T14:31:48.333Z,94744.56
2023-01-31T14:34:27.984Z,94744.34
2023-01-31T14:36:55.008Z,94740.28
2023-01-31T14:39:30.714Z,94733.00
2023-01-31T14:42:16.233Z,94748.00
2023-01-31T14:45:03.389Z,94749.63
2023-01-31T14:47:39.531Z,94755.91
2023-01-31T14:50:56.535Z,94763.41
2023-01-31T14:53:41.255Z,94764.22
2023-01-31T14:56:26.288Z,94762.59
2023-01-31T14:58:54.162Z,94775.34
2023-01-31T15:01:24.130Z,94777.94
2023-01-31T15:03:56.443Z,94795.78
2023-01-31T15:06:40.673Z,94776.53
2023-01-31T15:09:19.223Z,94796.00
2023-01-31T15:11:48.289Z,94783.63
2023-01-31T15:14:34.249Z,94790.94
2023-01-31T15:17:33.233Z,94790.91
2023-01-31T15:20:21.434Z,94803.44
2023-01-31T15:22:49.822Z,94805.63
2023-01-31T15:25:23.289Z,94813.53
2023-01-31T15:27:51.550Z,94810.47
2023-01-31T15:30:21.309Z,94803.19
2023-01-31T15:33:13.671Z,94811.84
2023-01-31T15:35:54.206Z,94810.25
2023-01-31T15:38:43.569Z,94809.66
2023-01-31T15:41:36.361Z,94800.34
2023-01-31T15:44:23.842Z,94803.59
2023-01-31T15:46:55.553Z,94804.16
2023-01-31T15:49:39.480Z,94834.19
2023-01-31T15:52:15.431Z,94811.44
2023-01-31T15:54:55.913Z,94822.63
2023-01-31T15:57:27.740Z,94836.22
2023-01-31T15:59:56.424Z,94823.44
2023-01-31T16:02:30.930Z,94835.22
2023-01-31T16:04:58.165Z,94828.53
2023-01-31T16:07:31.505Z,94844.69
2023-01-31T16:10:03.796Z,94821.22
2023-01-31T16:12:32.779Z,94842.88
2023-01-31T16:15:06.292Z,94852.41
2023-01-31T16:17:34.219Z,94839.75
2023-01-31T16:20:01.345Z,94866.19
2023-01-31T16:22:32.661Z,94855.22
2023-01-31T16:25:02.126Z,94855.22
2023-01-31T16:27:42.915Z,94834.91
2023-01-31T16:30:16.938Z,94843.88
2023-01-31T16:32:46.618Z,94859.47
2023-01-31T16:35:24.573Z,94861.28
2023-01-31T16:38:00.738Z,94862.53
2023-01-31T16:40:49.224Z,94874.47
2023-01-31T16:43:27.781Z,94870.97
2023-01-31T16:45:58.120Z,94867.38
2023-01-31T16:48:29.711Z,94875.91
2023-01-31T16:50:58.964Z,94886.19
2023-01-31T16:53:35.932Z,94879.34
2023-01-31T16:56:15.333Z,94891.09
2023-01-31T16:58:50.012Z,94890.81
2023-01-31T17:01:22.307Z,94850.84
2023-01-31T17:04:09.344Z,94899.41
2023-01-31T17:06:37.332Z,94877.03
2023-01-31T17:09:07.413Z,94911.56
2023-01-31T17:11:42.751Z,94895.28
2023-01-31T17:14:11.450Z,94902.41
2023-01-31T17:16:39.020Z,94897.34
2023-01-31T17:19:06.202Z,94892.03
2023-01-31T17:21:39.215Z,94862.19
2023-01-31T17:24:06.963Z,94890.00
2023-01-31T17:26:33.855Z,94908.31
2023-01-31T17:29:02.563Z,94859.91
2023-01-31T17:31:31.438Z,94905.69
2023-01-31T17:33:58.550Z,94910.94
2023-01-31T17:36:25.369Z,94910.13
2023-01-31T17:38:53.102Z,94898.59
2023-01-31T17:41:21.692Z,94909.56
2023-01-31T17:43:48.686Z,94900.78
2023-01-31T17:46:17.562Z,94920.28
2023-01-31T17:48:45.117Z,94853.47
2023-01-31T17:51:12.406Z,94888.69
2023-01-31T17:53:49.422Z,94913.69
2023-01-31T17:56:18.540Z,94908.78
2023-01-31T17:58:46.152Z,94932.81
2023-01-31T18:01:14.478Z,94900.91
2023-01-31T18:03:42.614Z,94894.38
2023-01-31T18:06:10.319Z,94936.63
2023-01-31T18:08:37.993Z,94929.06
2023-01-31T18:11:07.698Z,94945.56
2023-01-31T18:13:38.181Z,94914.44
2023-01-31T18:16:15.007Z,94924.41
2023-01-31T18:18:43.958Z,94955.06
2023-01-31T18:21:20.265Z,94934.28
2023-01-31T18:23:56.243Z,94961.94
2023-01-31T18:26:24.492Z,94953.28
2023-01-31T18:28:52.028Z,94972.94
2023-01-31T18:31:19.115Z,94970.84
2023-01-31T18:33:47.601Z,94903.81
2023-01-31T18:36:17.964Z,94971.31
2023-01-31T18:38:46.430Z,94968.06
2023-01-31T18:41:16.283Z,94974.53
2023-01-31T18:43:43.456Z,94963.41
2023-01-31T18:46:11.393Z,94977.31
2023-01-31T18:48:39.610Z,94970.13
2023-01-31T18:51:08.579Z,94965.91
2023-01-31T18:53:37.914Z,94971.22
2023-01-31T18:56:07.160Z,94970.84
2023-01-31T18:58:36.614Z,94978.41
2023-01-31T19:01:17.696Z,94943.25
2023-01-31T19:03:47.008Z,94976.31
2023-01-31T19:06:16.631Z,94972.91
2023-01-31T19:08:46.814Z,94970.06
2023-01-31T19:11:15.820Z,94964.09
2023-01-31T19:13:43.259Z,94965.31
2023-01-31T19:16:22.131Z,94939.31
2023-01-31T19:18:50.462Z,94970.47
2023-01-31T19:21:28.729Z,94976.78
2023-01-31T19:23:59.535Z,94913.16
2023-01-31T19:26:27.235Z,94967.34
2023-01-31T19:28:55.734Z,94976.34
2023-01-31T19:31:24.990Z,94986.19
2023-01-31T19:33:57.786Z,94982.38
2023-01-31T19:36:30.566Z,94982.22
2023-01-31T19:38:59.545Z,94979.56
2023-01-31T19:41:27.899Z,94997.19
2023-01-31T19:43:57.138Z,94974.44
2023-01-31T19:46:27.254Z,94954.34
2023-01-31T19:48:56.072Z,94996.19
2023-01-31T19:51:25.132Z,94989.13
2023-01-31T19:53:55.523Z,94993.75
2023-01-31T19:56:24.348Z,94999.63
2023-01-31T19:58:51.619Z,94990.00
2023-01-31T20:01:19.034Z,94986.03
2023-01-31T20:03:46.507Z,94993.91
2023-01-31T20:06:16.179Z,94950.94
2023-01-31T20:08:50.745Z,94997.31
2023-01-31T20:11:18.365Z,95014.53
2023-01-31T20:13:45.675Z,95014.19
2023-01-31T20:16:13.623Z,95021.25
2023-01-31T20:18:41.339Z,95019.84
2023-01-31T20:21:13.683Z,95024.28
2023-01-31T20:23:40.841Z,95013.28
2023-01-31T20:26:07.777Z,95026.88
2023-01-31T20:28:34.761Z,95028.88
2023-01-31T20:31:09.853Z,95037.84
2023-01-31T20:33:37.479Z,95029.56
2023-01-31T20:36:05.353Z,95027.75
2023-01-31T20:38:32.658Z,95040.72
2023-01-31T20:41:02.209Z,95020.78
2023-01-31T20:43:29.206Z,94975.34
2023-01-31T20:46:07.281Z,95036.75
2023-01-31T20:48:34.289Z,95037.88
2023-01-31T20:51:01.256Z,95045.22
2023-01-31T20:53:28.797Z,95024.19
2023-01-31T20:56:04.575Z,95037.06
2023-01-31T20:58:34.735Z,95027.72
2023-01-31T21:01:05.516Z,95030.94
2023-01-31T21:03:34.170Z,95040.19
2023-01-31T21:06:01.928Z,95044.50
2023-01-31T21:08:29.988Z,95031.03
2023-01-31T21:10:58.628Z,95056.81
2023-01-31T21:13:30.133Z,95057.03
2023-01-31T21:16:00.022Z,95060.91
2023-01-31T21:18:28.762Z,95054.19
2023-01-31T21:21:23.601Z,95066.16
2023-01-31T21:23:52.717Z,95067.06
2023-01-31T21:26:21.104Z,95062.97
2023-01-31T21:28:48.856Z,95043.16
2023-01-31T21:31:18.455Z,95056.13
2023-01-31T21:33:50.632Z,95064.91
2023-01-31T21:36:20.456Z,95052.69
2023-01-31T21:38:47.395Z,95049.19
2023-01-31T21:41:33.929Z,95068.72
2023-01-31T21:44:00.755Z,95051.88
2023-01-31T21:46:27.986Z,95061.50
2023-01-31T21:48:55.017Z,95068.09
2023-01-31T21:51:24.585Z,95066.75
2023-01-31T21:53:53.165Z,95056.94
2023-01-31T21:56:26.236Z,95048.41
2023-01-31T21:58:54.602Z,95067.16
2023-01-31T22:01:28.563Z,95076.75
2023-01-31T22:03:56.572Z,95073.94
2023-01-31T22:06:31.494Z,95084.34
2023-01-31T22:09:00.778Z,95079.72
2023-01-31T22:11:35.478Z,95067.06
2023-01-31T22:14:05.068Z,95073.00
2023-01-31T22:16:32.121Z,95067.69
2023-01-31T22:19:02.723Z,95065.59
2023-01-31T22:21:36.064Z,95068.28
2023-01-31T22:24:04.754Z,95070.31
2023-01-31T22:26:43.404Z,95073.50
2023-01-31T22:29:12.978Z,95069.19
2023-01-31T22:31:40.254Z,95075.84
2023-01-31T22:34:08.894Z,95069.72
2023-01-31T22:36:36.178Z,95068.59
2023-01-31T22:39:03.142Z,95057.41
2023-01-31T22:41:30.409Z,95073.63
2023-01-31T22:43:57.471Z,95080.56
2023-01-31T22:46:27.056Z,95078.63
2023-01-31T22:48:54.943Z,95059.81
2023-01-31T22:51:25.956Z,95069.56
2023-01-31T22:53:54.951Z,95072.91
2023-01-31T22:56:24.435Z,95069.47
2023-01-31T22:59:02.496Z,95065.66
2023-01-31T23:01:32.829Z,95068.97
2023-01-31T23:04:01.532Z,95063.25
2023-01-31T23:06:29.280Z,95068.34
2023-01-31T23:08:57.045Z,95059.53
2023-01-31T23:11:25.142Z,95056.69
2023-01-31T23:13:52.349Z,95035.38
2023-01-31T23:16:21.918Z,95065.19
2023-01-31T23:18:49.011Z,95061.84
2023-01-31T23:21:18.629Z,95045.34
2023-01-31T23:23:46.190Z,95051.97
2023-01-31T23:26:13.897Z,95070.03
2023-01-31T23:28:41.217Z,95059.16
2023-01-31T23:31:08.428Z,95039.72
2023-01-31T23:33:35.444Z,95065.47
2023-01-31T23:36:02.748Z,95071.13
2023-01-31T23:38:29.828Z,95067.84
2023-01-31T23:40:56.674Z,95074.13
2023-01-31T23:43:24.163Z,95072.41
2023-01-31T23:45:51.213Z,95074.59
2023-01-31T23:48:18.466Z,95068.19
2023-01-31T23:50:45.359Z,95080.03
2023-01-31T23:53:12.408Z,95084.59
2023-01-31T23:55:39.328Z,95082.69
2023-01-31T23:58:06.335Z,95089.09
